sensor_id;sensor_type;location;lat;lon;timestamp;P1;durP1;ratioP1;P2;durP2;ratioP2
52744;SDS011;38637;49.984;20.426;2023-08-07T00:01:16;0.90;;;0.90;;
52744;SDS011;38637;49.984;20.426;2023-08-07T00:03:41;0.93;;;0.90;;
52744;SDS011;38637;49.984;20.426;2023-08-07T00:06:07;0.90;;;0.80;;
52744;SDS011;38637;49.984;20.426;2023-08-07T00:08:32;1.80;;;1.10;;
52744;SDS011;38637;49.984;20.426;2023-08-07T00:11:07;2.43;;;1.10;;
52744;SDS011;38637;49.984;20.426;2023-08-07T00:13:34;1.77;;;0.85;;
52744;SDS011;38637;49.984;20.426;2023-08-07T00:15:59;1.20;;;0.93;;
52744;SDS011;38637;49.984;20.426;2023-08-07T00:18:25;1.80;;;0.73;;
52744;SDS011;38637;49.984;20.426;2023-08-07T00:20:50;2.73;;;0.80;;
52744;SDS011;38637;49.984;20.426;2023-08-07T00:23:15;1.90;;;1.17;;
52744;SDS011;38637;49.984;20.426;2023-08-07T00:25:40;0.80;;;0.80;;
52744;SDS011;38637;49.984;20.426;2023-08-07T00:28:06;1.00;;;1.00;;
52744;SDS011;38637;49.984;20.426;2023-08-07T00:30:31;0.90;;;0.90;;
52744;SDS011;38637;49.984;20.426;2023-08-07T00:32:56;0.97;;;0.90;;
52744;SDS011;38637;49.984;20.426;2023-08-07T00:35:22;2.80;;;1.03;;
52744;SDS011;38637;49.984;20.426;2023-08-07T00:37:47;2.20;;;0.90;;
52744;SDS011;38637;49.984;20.426;2023-08-07T00:40:12;1.03;;;1.00;;
52744;SDS011;38637;49.984;20.426;2023-08-07T00:42:38;1.93;;;1.07;;
52744;SDS011;38637;49.984;20.426;2023-08-07T00:45:03;1.10;;;0.90;;
52744;SDS011;38637;49.984;20.426;2023-08-07T00:49:55;1.88;;;0.90;;
52744;SDS011;38637;49.984;20.426;2023-08-07T00:52:23;4.53;;;0.95;;
52744;SDS011;38637;49.984;20.426;2023-08-07T00:54:48;4.03;;;1.00;;
52744;SDS011;38637;49.984;20.426;2023-08-07T00:57:14;2.43;;;1.10;;
52744;SDS011;38637;49.984;20.426;2023-08-07T00:59:40;1.83;;;1.65;;
52744;SDS011;38637;49.984;20.426;2023-08-07T01:02:06;7.60;;;1.20;;
52744;SDS011;38637;49.984;20.426;2023-08-07T01:04:32;0.90;;;0.80;;
52744;SDS011;38637;49.984;20.426;2023-08-07T01:06:57;1.20;;;1.10;;
52744;SDS011;38637;49.984;20.426;2023-08-07T01:09:23;3.30;;;1.13;;
52744;SDS011;38637;49.984;20.426;2023-08-07T01:11:50;1.10;;;0.93;;
52744;SDS011;38637;49.984;20.426;2023-08-07T01:14:37;1.50;;;0.95;;
52744;SDS011;38637;49.984;20.426;2023-08-07T01:17:14;1.80;;;0.90;;
52744;SDS011;38637;49.984;20.426;2023-08-07T01:19:41;1.75;;;1.00;;
52744;SDS011;38637;49.984;20.426;2023-08-07T01:22:10;2.03;;;0.93;;
52744;SDS011;38637;49.984;20.426;2023-08-07T01:24:37;1.35;;;1.20;;
52744;SDS011;38637;49.984;20.426;2023-08-07T01:32:26;0.90;;;0.80;;
52744;SDS011;38637;49.984;20.426;2023-08-07T01:34:57;2.08;;;1.08;;
52744;SDS011;38637;49.984;20.426;2023-08-07T01:37:26;1.85;;;0.80;;
52744;SDS011;38637;49.984;20.426;2023-08-07T01:39:54;1.27;;;0.90;;
52744;SDS011;38637;49.984;20.426;2023-08-07T01:42:22;2.80;;;1.30;;
52744;SDS011;38637;49.984;20.426;2023-08-07T01:44:47;2.07;;;0.80;;
52744;SDS011;38637;49.984;20.426;2023-08-07T01:47:13;0.80;;;0.80;;
52744;SDS011;38637;49.984;20.426;2023-08-07T01:49:38;6.10;;;0.90;;
52744;SDS011;38637;49.984;20.426;2023-08-07T01:52:05;1.00;;;0.90;;
52744;SDS011;38637;49.984;20.426;2023-08-07T01:54:32;1.75;;;1.15;;
52744;SDS011;38637;49.984;20.426;2023-08-07T01:56:57;3.87;;;0.80;;
52744;SDS011;38637;49.984;20.426;2023-08-07T01:59:22;2.73;;;1.20;;
52744;SDS011;38637;49.984;20.426;2023-08-07T02:01:47;1.23;;;1.13;;
52744;SDS011;38637;49.984;20.426;2023-08-07T02:04:13;3.90;;;1.27;;
52744;SDS011;38637;49.984;20.426;2023-08-07T02:06:38;2.73;;;1.07;;
52744;SDS011;38637;49.984;20.426;2023-08-07T02:09:03;5.60;;;1.10;;
52744;SDS011;38637;49.984;20.426;2023-08-07T02:11:29;3.50;;;1.05;;
52744;SDS011;38637;49.984;20.426;2023-08-07T02:13:55;1.30;;;1.20;;
52744;SDS011;38637;49.984;20.426;2023-08-07T02:16:20;3.20;;;1.10;;
52744;SDS011;38637;49.984;20.426;2023-08-07T02:18:46;2.60;;;1.10;;
52744;SDS011;38637;49.984;20.426;2023-08-07T02:21:11;2.37;;;1.10;;
52744;SDS011;38637;49.984;20.426;2023-08-07T02:23:36;5.93;;;1.00;;
52744;SDS011;38637;49.984;20.426;2023-08-07T02:26:01;2.43;;;1.00;;
52744;SDS011;38637;49.984;20.426;2023-08-07T02:28:27;1.50;;;1.40;;
52744;SDS011;38637;49.984;20.426;2023-08-07T02:30:52;5.63;;;1.13;;
52744;SDS011;38637;49.984;20.426;2023-08-07T02:33:19;2.20;;;1.13;;
52744;SDS011;38637;49.984;20.426;2023-08-07T02:35:44;3.00;;;1.53;;
52744;SDS011;38637;49.984;20.426;2023-08-07T02:38:10;5.00;;;1.45;;
52744;SDS011;38637;49.984;20.426;2023-08-07T02:40:36;1.00;;;1.00;;
52744;SDS011;38637;49.984;20.426;2023-08-07T02:43:01;3.17;;;1.00;;
52744;SDS011;38637;49.984;20.426;2023-08-07T02:45:26;2.77;;;1.07;;
52744;SDS011;38637;49.984;20.426;2023-08-07T02:47:52;2.93;;;0.90;;
52744;SDS011;38637;49.984;20.426;2023-08-07T02:50:17;1.73;;;0.90;;
52744;SDS011;38637;49.984;20.426;2023-08-07T02:52:42;1.17;;;0.77;;
52744;SDS011;38637;49.984;20.426;2023-08-07T02:55:07;1.30;;;0.90;;
52744;SDS011;38637;49.984;20.426;2023-08-07T02:57:33;1.90;;;0.90;;
52744;SDS011;38637;49.984;20.426;2023-08-07T02:59:58;8.00;;;1.53;;
52744;SDS011;38637;49.984;20.426;2023-08-07T03:02:23;3.43;;;0.90;;
52744;SDS011;38637;49.984;20.426;2023-08-07T03:04:49;6.80;;;1.13;;
52744;SDS011;38637;49.984;20.426;2023-08-07T03:07:14;2.03;;;0.90;;
52744;SDS011;38637;49.984;20.426;2023-08-07T03:09:39;3.33;;;1.10;;
52744;SDS011;38637;49.984;20.426;2023-08-07T03:12:05;2.67;;;1.00;;
52744;SDS011;38637;49.984;20.426;2023-08-07T03:14:30;2.10;;;1.00;;
52744;SDS011;38637;49.984;20.426;2023-08-07T03:16:56;1.20;;;1.10;;
52744;SDS011;38637;49.984;20.426;2023-08-07T03:19:21;4.67;;;0.80;;
52744;SDS011;38637;49.984;20.426;2023-08-07T03:21:46;2.87;;;1.03;;
52744;SDS011;38637;49.984;20.426;2023-08-07T03:24:12;1.57;;;0.80;;
52744;SDS011;38637;49.984;20.426;2023-08-07T03:26:37;2.20;;;1.10;;
52744;SDS011;38637;49.984;20.426;2023-08-07T03:29:03;0.90;;;0.80;;
52744;SDS011;38637;49.984;20.426;2023-08-07T03:31:28;3.07;;;1.00;;
52744;SDS011;38637;49.984;20.426;2023-08-07T03:33:53;0.80;;;0.80;;
52744;SDS011;38637;49.984;20.426;2023-08-07T03:36:18;2.90;;;1.03;;
52744;SDS011;38637;49.984;20.426;2023-08-07T03:38:44;2.50;;;1.20;;
52744;SDS011;38637;49.984;20.426;2023-08-07T03:41:09;2.20;;;1.10;;
52744;SDS011;38637;49.984;20.426;2023-08-07T03:43:35;2.57;;;1.20;;
52744;SDS011;38637;49.984;20.426;2023-08-07T03:46:00;2.00;;;0.90;;
52744;SDS011;38637;49.984;20.426;2023-08-07T03:48:25;3.90;;;1.10;;
52744;SDS011;38637;49.984;20.426;2023-08-07T03:50:51;1.20;;;0.73;;
52744;SDS011;38637;49.984;20.426;2023-08-07T03:53:16;2.90;;;1.00;;
52744;SDS011;38637;49.984;20.426;2023-08-07T03:55:41;2.17;;;0.73;;
52744;SDS011;38637;49.984;20.426;2023-08-07T03:58:07;2.97;;;0.90;;
52744;SDS011;38637;49.984;20.426;2023-08-07T04:00:33;1.17;;;0.93;;
52744;SDS011;38637;49.984;20.426;2023-08-07T04:02:58;1.30;;;1.20;;
52744;SDS011;38637;49.984;20.426;2023-08-07T04:05:24;2.73;;;0.90;;
52744;SDS011;38637;49.984;20.426;2023-08-07T04:07:49;5.53;;;1.20;;
52744;SDS011;38637;49.984;20.426;2023-08-07T04:10:15;1.10;;;1.00;;
52744;SDS011;38637;49.984;20.426;2023-08-07T04:12:40;1.53;;;0.80;;
52744;SDS011;38637;49.984;20.426;2023-08-07T04:15:06;1.37;;;1.10;;
52744;SDS011;38637;49.984;20.426;2023-08-07T04:17:32;1.75;;;1.60;;
52744;SDS011;38637;49.984;20.426;2023-08-07T04:19:57;4.47;;;0.90;;
52744;SDS011;38637;49.984;20.426;2023-08-07T04:22:22;0.80;;;0.80;;
52744;SDS011;38637;49.984;20.426;2023-08-07T04:24:47;4.40;;;1.10;;
52744;SDS011;38637;49.984;20.426;2023-08-07T04:27:13;2.10;;;0.93;;
52744;SDS011;38637;49.984;20.426;2023-08-07T04:29:38;2.83;;;0.90;;
52744;SDS011;38637;49.984;20.426;2023-08-07T04:32:04;2.33;;;0.90;;
52744;SDS011;38637;49.984;20.426;2023-08-07T04:34:29;1.70;;;0.95;;
52744;SDS011;38637;49.984;20.426;2023-08-07T04:36:55;1.30;;;1.00;;
52744;SDS011;38637;49.984;20.426;2023-08-07T04:39:21;2.78;;;0.85;;
52744;SDS011;38637;49.984;20.426;2023-08-07T04:41:47;2.67;;;1.10;;
52744;SDS011;38637;49.984;20.426;2023-08-07T04:44:15;2.60;;;1.10;;
52744;SDS011;38637;49.984;20.426;2023-08-07T04:46:40;1.03;;;0.93;;
52744;SDS011;38637;49.984;20.426;2023-08-07T04:49:06;2.23;;;1.00;;
52744;SDS011;38637;49.984;20.426;2023-08-07T04:51:31;3.00;;;0.80;;
52744;SDS011;38637;49.984;20.426;2023-08-07T04:53:56;1.63;;;0.87;;
52744;SDS011;38637;49.984;20.426;2023-08-07T04:56:22;2.23;;;1.00;;
52744;SDS011;38637;49.984;20.426;2023-08-07T04:58:47;2.83;;;0.90;;
52744;SDS011;38637;49.984;20.426;2023-08-07T05:01:12;4.60;;;0.90;;
52744;SDS011;38637;49.984;20.426;2023-08-07T05:03:38;0.87;;;0.80;;
52744;SDS011;38637;49.984;20.426;2023-08-07T05:06:03;2.80;;;1.20;;
52744;SDS011;38637;49.984;20.426;2023-08-07T05:08:28;1.90;;;0.90;;
52744;SDS011;38637;49.984;20.426;2023-08-07T05:10:54;5.03;;;0.97;;
52744;SDS011;38637;49.984;20.426;2023-08-07T05:13:19;4.33;;;0.90;;
52744;SDS011;38637;49.984;20.426;2023-08-07T05:15:46;1.43;;;0.80;;
52744;SDS011;38637;49.984;20.426;2023-08-07T05:18:12;6.15;;;1.73;;
52744;SDS011;38637;49.984;20.426;2023-08-07T05:20:37;1.00;;;0.83;;
52744;SDS011;38637;49.984;20.426;2023-08-07T05:23:03;4.60;;;0.90;;
52744;SDS011;38637;49.984;20.426;2023-08-07T05:25:28;1.73;;;0.90;;
52744;SDS011;38637;49.984;20.426;2023-08-07T05:27:53;1.47;;;0.90;;
52744;SDS011;38637;49.984;20.426;2023-08-07T05:30:18;2.27;;;0.80;;
52744;SDS011;38637;49.984;20.426;2023-08-07T05:32:44;2.47;;;0.57;;
52744;SDS011;38637;49.984;20.426;2023-08-07T05:35:09;0.60;;;0.60;;
52744;SDS011;38637;49.984;20.426;2023-08-07T05:37:35;3.10;;;1.20;;
52744;SDS011;38637;49.984;20.426;2023-08-07T05:40:01;1.05;;;0.98;;
52744;SDS011;38637;49.984;20.426;2023-08-07T05:42:27;1.25;;;0.85;;
52744;SDS011;38637;49.984;20.426;2023-08-07T05:44:53;1.30;;;0.70;;
52744;SDS011;38637;49.984;20.426;2023-08-07T05:47:18;4.23;;;1.00;;
52744;SDS011;38637;49.984;20.426;2023-08-07T05:49:43;1.70;;;0.97;;
52744;SDS011;38637;49.984;20.426;2023-08-07T05:52:09;1.13;;;0.90;;
52744;SDS011;38637;49.984;20.426;2023-08-07T05:54:34;2.43;;;0.77;;
52744;SDS011;38637;49.984;20.426;2023-08-07T05:56:59;0.87;;;0.70;;
52744;SDS011;38637;49.984;20.426;2023-08-07T05:59:25;0.93;;;0.60;;
52744;SDS011;38637;49.984;20.426;2023-08-07T06:01:50;1.37;;;1.00;;
52744;SDS011;38637;49.984;20.426;2023-08-07T06:04:16;0.80;;;0.80;;
52744;SDS011;38637;49.984;20.426;2023-08-07T06:06:42;3.17;;;0.70;;
52744;SDS011;38637;49.984;20.426;2023-08-07T06:09:07;2.60;;;0.60;;
52744;SDS011;38637;49.984;20.426;2023-08-07T06:11:33;1.40;;;0.83;;
52744;SDS011;38637;49.984;20.426;2023-08-07T06:13:59;2.07;;;0.70;;
52744;SDS011;38637;49.984;20.426;2023-08-07T06:16:24;0.60;;;0.60;;
52744;SDS011;38637;49.984;20.426;2023-08-07T06:18:50;1.13;;;0.80;;
52744;SDS011;38637;49.984;20.426;2023-08-07T06:21:15;0.60;;;0.60;;
52744;SDS011;38637;49.984;20.426;2023-08-07T06:23:40;2.20;;;0.70;;
52744;SDS011;38637;49.984;20.426;2023-08-07T06:26:06;1.37;;;0.50;;
52744;SDS011;38637;49.984;20.426;2023-08-07T06:28:33;1.67;;;0.50;;
52744;SDS011;38637;49.984;20.426;2023-08-07T06:31:02;0.40;;;0.40;;
52744;SDS011;38637;49.984;20.426;2023-08-07T06:33:28;0.70;;;0.32;;
52744;SDS011;38637;49.984;20.426;2023-08-07T06:35:53;2.37;;;0.30;;
52744;SDS011;38637;49.984;20.426;2023-08-07T06:38:18;0.47;;;0.47;;
52744;SDS011;38637;49.984;20.426;2023-08-07T06:40:44;0.20;;;0.20;;
52744;SDS011;38637;49.984;20.426;2023-08-07T06:43:09;1.00;;;0.33;;
52744;SDS011;38637;49.984;20.426;2023-08-07T06:45:34;0.87;;;0.30;;
52744;SDS011;38637;49.984;20.426;2023-08-07T06:48:00;3.13;;;0.40;;
52744;SDS011;38637;49.984;20.426;2023-08-07T06:50:25;0.43;;;0.30;;
52744;SDS011;38637;49.984;20.426;2023-08-07T06:52:50;0.60;;;0.60;;
52744;SDS011;38637;49.984;20.426;2023-08-07T06:55:16;2.00;;;0.30;;
52744;SDS011;38637;49.984;20.426;2023-08-07T06:57:41;0.30;;;0.30;;
52744;SDS011;38637;49.984;20.426;2023-08-07T07:00:07;0.57;;;0.30;;
52744;SDS011;38637;49.984;20.426;2023-08-07T07:02:34;1.60;;;0.40;;
52744;SDS011;38637;49.984;20.426;2023-08-07T07:05:00;4.83;;;1.13;;
52744;SDS011;38637;49.984;20.426;2023-08-07T07:07:25;3.67;;;0.60;;
52744;SDS011;38637;49.984;20.426;2023-08-07T07:09:50;2.03;;;0.37;;
52744;SDS011;38637;49.984;20.426;2023-08-07T07:12:16;2.00;;;0.50;;
52744;SDS011;38637;49.984;20.426;2023-08-07T07:14:41;0.30;;;0.30;;
52744;SDS011;38637;49.984;20.426;2023-08-07T07:17:06;0.40;;;0.40;;
52744;SDS011;38637;49.984;20.426;2023-08-07T07:19:31;3.53;;;0.40;;
52744;SDS011;38637;49.984;20.426;2023-08-07T07:21:59;5.15;;;0.40;;
52744;SDS011;38637;49.984;20.426;2023-08-07T07:24:25;0.67;;;0.40;;
52744;SDS011;38637;49.984;20.426;2023-08-07T07:26:50;1.53;;;0.60;;
52744;SDS011;38637;49.984;20.426;2023-08-07T07:29:16;0.43;;;0.43;;
52744;SDS011;38637;49.984;20.426;2023-08-07T07:31:42;1.27;;;0.45;;
52744;SDS011;38637;49.984;20.426;2023-08-07T07:34:07;2.57;;;0.60;;
52744;SDS011;38637;49.984;20.426;2023-08-07T07:36:33;0.30;;;0.30;;
52744;SDS011;38637;49.984;20.426;2023-08-07T07:38:58;0.67;;;0.30;;
52744;SDS011;38637;49.984;20.426;2023-08-07T07:41:23;5.63;;;0.50;;
52744;SDS011;38637;49.984;20.426;2023-08-07T07:43:49;2.33;;;0.30;;
52744;SDS011;38637;49.984;20.426;2023-08-07T07:46:14;0.53;;;0.50;;
52744;SDS011;38637;49.984;20.426;2023-08-07T07:48:39;0.40;;;0.40;;
52744;SDS011;38637;49.984;20.426;2023-08-07T07:51:05;1.73;;;0.40;;
52744;SDS011;38637;49.984;20.426;2023-08-07T07:53:30;0.40;;;0.40;;
52744;SDS011;38637;49.984;20.426;2023-08-07T07:55:56;0.40;;;0.40;;
52744;SDS011;38637;49.984;20.426;2023-08-07T07:58:21;0.47;;;0.37;;
52744;SDS011;38637;49.984;20.426;2023-08-07T08:00:47;0.30;;;0.30;;
52744;SDS011;38637;49.984;20.426;2023-08-07T08:03:12;0.80;;;0.40;;
52744;SDS011;38637;49.984;20.426;2023-08-07T08:05:38;0.30;;;0.30;;
52744;SDS011;38637;49.984;20.426;2023-08-07T08:08:04;0.32;;;0.32;;
52744;SDS011;38637;49.984;20.426;2023-08-07T08:12:55;0.38;;;0.32;;
52744;SDS011;38637;49.984;20.426;2023-08-07T08:15:21;1.30;;;0.30;;
52744;SDS011;38637;49.984;20.426;2023-08-07T08:17:47;0.30;;;0.30;;
52744;SDS011;38637;49.984;20.426;2023-08-07T08:20:13;0.85;;;0.30;;
52744;SDS011;38637;49.984;20.426;2023-08-07T08:22:42;0.30;;;0.30;;
52744;SDS011;38637;49.984;20.426;2023-08-07T08:25:07;1.57;;;0.40;;
52744;SDS011;38637;49.984;20.426;2023-08-07T08:29:59;0.47;;;0.47;;
52744;SDS011;38637;49.984;20.426;2023-08-07T08:32:24;0.30;;;0.30;;
52744;SDS011;38637;49.984;20.426;2023-08-07T08:34:50;0.47;;;0.40;;
52744;SDS011;38637;49.984;20.426;2023-08-07T08:37:15;2.33;;;0.57;;
52744;SDS011;38637;49.984;20.426;2023-08-07T08:39:41;3.73;;;0.40;;
52744;SDS011;38637;49.984;20.426;2023-08-07T08:42:06;1.60;;;0.50;;
52744;SDS011;38637;49.984;20.426;2023-08-07T08:44:35;0.45;;;0.40;;
52744;SDS011;38637;49.984;20.426;2023-08-07T08:47:03;0.73;;;0.47;;
52744;SDS011;38637;49.984;20.426;2023-08-07T08:49:33;1.45;;;0.73;;
52744;SDS011;38637;49.984;20.426;2023-08-07T08:52:02;0.60;;;0.60;;
52744;SDS011;38637;49.984;20.426;2023-08-07T08:54:29;2.08;;;0.45;;
52744;SDS011;38637;49.984;20.426;2023-08-07T08:56:55;1.10;;;0.60;;
52744;SDS011;38637;49.984;20.426;2023-08-07T08:59:23;1.23;;;0.77;;
52744;SDS011;38637;49.984;20.426;2023-08-07T09:01:50;0.63;;;0.60;;
52744;SDS011;38637;49.984;20.426;2023-08-07T09:04:18;2.25;;;0.50;;
52744;SDS011;38637;49.984;20.426;2023-08-07T09:06:43;0.75;;;0.50;;
52744;SDS011;38637;49.984;20.426;2023-08-07T09:09:09;0.80;;;0.40;;
52744;SDS011;38637;49.984;20.426;2023-08-07T09:11:37;0.47;;;0.47;;
52744;SDS011;38637;49.984;20.426;2023-08-07T09:14:03;1.37;;;0.40;;
52744;SDS011;38637;49.984;20.426;2023-08-07T09:16:29;3.15;;;0.40;;
52744;SDS011;38637;49.984;20.426;2023-08-07T09:18:56;0.30;;;0.30;;
52744;SDS011;38637;49.984;20.426;2023-08-07T09:21:21;0.40;;;0.40;;
52744;SDS011;38637;49.984;20.426;2023-08-07T09:23:46;0.30;;;0.30;;
52744;SDS011;38637;49.984;20.426;2023-08-07T09:26:12;0.70;;;0.40;;
52744;SDS011;38637;49.984;20.426;2023-08-07T09:28:37;0.50;;;0.40;;
52744;SDS011;38637;49.984;20.426;2023-08-07T09:31:05;2.60;;;0.32;;
52744;SDS011;38637;49.984;20.426;2023-08-07T09:33:33;0.60;;;0.25;;
52744;SDS011;38637;49.984;20.426;2023-08-07T09:35:59;0.37;;;0.37;;
52744;SDS011;38637;49.984;20.426;2023-08-07T09:38:27;1.42;;;0.40;;
52744;SDS011;38637;49.984;20.426;2023-08-07T09:40:59;0.40;;;0.25;;
52744;SDS011;38637;49.984;20.426;2023-08-07T09:43:25;0.20;;;0.20;;
52744;SDS011;38637;49.984;20.426;2023-08-07T09:45:51;0.67;;;0.37;;
52744;SDS011;38637;49.984;20.426;2023-08-07T09:48:22;1.20;;;0.40;;
52744;SDS011;38637;49.984;20.426;2023-08-07T09:50:48;0.50;;;0.45;;
52744;SDS011;38637;49.984;20.426;2023-08-07T09:53:13;0.40;;;0.40;;
52744;SDS011;38637;49.984;20.426;2023-08-07T09:55:39;0.40;;;0.37;;
52744;SDS011;38637;49.984;20.426;2023-08-07T09:58:05;0.30;;;0.30;;
52744;SDS011;38637;49.984;20.426;2023-08-07T10:00:33;0.30;;;0.30;;
52744;SDS011;38637;49.984;20.426;2023-08-07T10:03:00;1.65;;;0.20;;
52744;SDS011;38637;49.984;20.426;2023-08-07T10:05:26;1.40;;;0.52;;
52744;SDS011;38637;49.984;20.426;2023-08-07T10:07:52;0.77;;;0.30;;
52744;SDS011;38637;49.984;20.426;2023-08-07T10:10:19;0.38;;;0.20;;
52744;SDS011;38637;49.984;20.426;2023-08-07T10:12:45;0.30;;;0.30;;
52744;SDS011;38637;49.984;20.426;2023-08-07T10:15:12;0.52;;;0.30;;
52744;SDS011;38637;49.984;20.426;2023-08-07T10:17:39;0.28;;;0.28;;
52744;SDS011;38637;49.984;20.426;2023-08-07T10:20:04;0.60;;;0.50;;
52744;SDS011;38637;49.984;20.426;2023-08-07T10:22:31;0.40;;;0.40;;
52744;SDS011;38637;49.984;20.426;2023-08-07T10:25:00;1.10;;;0.50;;
52744;SDS011;38637;49.984;20.426;2023-08-07T10:27:27;1.20;;;0.40;;
52744;SDS011;38637;49.984;20.426;2023-08-07T10:29:55;2.30;;;0.35;;
52744;SDS011;38637;49.984;20.426;2023-08-07T10:32:23;0.50;;;0.50;;
52744;SDS011;38637;49.984;20.426;2023-08-07T10:34:50;0.30;;;0.30;;
52744;SDS011;38637;49.984;20.426;2023-08-07T10:40:07;0.70;;;0.30;;
52744;SDS011;38637;49.984;20.426;2023-08-07T10:45:23;0.82;;;0.20;;
52744;SDS011;38637;49.984;20.426;2023-08-07T10:47:56;0.50;;;0.40;;
52744;SDS011;38637;49.984;20.426;2023-08-07T10:50:55;3.05;;;0.40;;
52744;SDS011;38637;49.984;20.426;2023-08-07T10:53:29;0.30;;;0.30;;
52744;SDS011;38637;49.984;20.426;2023-08-07T10:55:55;0.50;;;0.50;;
52744;SDS011;38637;49.984;20.426;2023-08-07T10:58:24;2.03;;;0.38;;
52744;SDS011;38637;49.984;20.426;2023-08-07T11:00:52;1.20;;;0.30;;
52744;SDS011;38637;49.984;20.426;2023-08-07T11:03:39;0.30;;;0.30;;
52744;SDS011;38637;49.984;20.426;2023-08-07T11:06:05;0.30;;;0.30;;
52744;SDS011;38637;49.984;20.426;2023-08-07T11:08:31;0.60;;;0.40;;
52744;SDS011;38637;49.984;20.426;2023-08-07T11:10:57;0.50;;;0.40;;
52744;SDS011;38637;49.984;20.426;2023-08-07T11:13:29;0.40;;;0.40;;
52744;SDS011;38637;49.984;20.426;2023-08-07T11:15:54;0.52;;;0.40;;
52744;SDS011;38637;49.984;20.426;2023-08-07T11:18:20;0.27;;;0.27;;
52744;SDS011;38637;49.984;20.426;2023-08-07T11:20:47;0.30;;;0.30;;
52744;SDS011;38637;49.984;20.426;2023-08-07T11:23:13;0.27;;;0.27;;
52744;SDS011;38637;49.984;20.426;2023-08-07T11:25:38;0.47;;;0.30;;
52744;SDS011;38637;49.984;20.426;2023-08-07T11:28:04;0.30;;;0.30;;
52744;SDS011;38637;49.984;20.426;2023-08-07T11:30:29;0.40;;;0.33;;
52744;SDS011;38637;49.984;20.426;2023-08-07T11:35:22;1.00;;;0.50;;
52744;SDS011;38637;49.984;20.426;2023-08-07T11:37:48;0.30;;;0.30;;
52744;SDS011;38637;49.984;20.426;2023-08-07T11:40:13;2.77;;;0.40;;
52744;SDS011;38637;49.984;20.426;2023-08-07T11:42:40;0.30;;;0.30;;
52744;SDS011;38637;49.984;20.426;2023-08-07T11:45:06;0.60;;;0.60;;
52744;SDS011;38637;49.984;20.426;2023-08-07T11:47:32;2.30;;;0.30;;
52744;SDS011;38637;49.984;20.426;2023-08-07T11:49:58;2.65;;;0.50;;
52744;SDS011;38637;49.984;20.426;2023-08-07T11:52:24;0.30;;;0.30;;
52744;SDS011;38637;49.984;20.426;2023-08-07T11:54:49;0.63;;;0.30;;
52744;SDS011;38637;49.984;20.426;2023-08-07T11:57:17;0.35;;;0.35;;
52744;SDS011;38637;49.984;20.426;2023-08-07T11:59:51;0.43;;;0.30;;
52744;SDS011;38637;49.984;20.426;2023-08-07T12:02:16;1.10;;;0.60;;
52744;SDS011;38637;49.984;20.426;2023-08-07T12:04:46;2.75;;;0.40;;
52744;SDS011;38637;49.984;20.426;2023-08-07T12:07:12;0.30;;;0.30;;
52744;SDS011;38637;49.984;20.426;2023-08-07T12:09:42;3.20;;;0.43;;
52744;SDS011;38637;49.984;20.426;2023-08-07T12:12:07;3.33;;;0.40;;
52744;SDS011;38637;49.984;20.426;2023-08-07T12:14:33;0.50;;;0.40;;
52744;SDS011;38637;49.984;20.426;2023-08-07T12:17:00;1.70;;;0.40;;
52744;SDS011;38637;49.984;20.426;2023-08-07T12:19:35;0.50;;;0.50;;
52744;SDS011;38637;49.984;20.426;2023-08-07T12:22:06;1.50;;;0.30;;
52744;SDS011;38637;49.984;20.426;2023-08-07T12:24:32;0.50;;;0.40;;
52744;SDS011;38637;49.984;20.426;2023-08-07T12:26:57;0.67;;;0.40;;
52744;SDS011;38637;49.984;20.426;2023-08-07T12:29:22;0.30;;;0.30;;
52744;SDS011;38637;49.984;20.426;2023-08-07T12:31:49;0.32;;;0.32;;
52744;SDS011;38637;49.984;20.426;2023-08-07T12:34:15;0.52;;;0.30;;
52744;SDS011;38637;49.984;20.426;2023-08-07T12:36:41;0.40;;;0.40;;
52744;SDS011;38637;49.984;20.426;2023-08-07T12:39:07;0.73;;;0.40;;
52744;SDS011;38637;49.984;20.426;2023-08-07T12:41:32;0.50;;;0.50;;
52744;SDS011;38637;49.984;20.426;2023-08-07T12:43:57;0.90;;;0.50;;
52744;SDS011;38637;49.984;20.426;2023-08-07T12:46:24;0.60;;;0.40;;
52744;SDS011;38637;49.984;20.426;2023-08-07T12:48:49;0.57;;;0.40;;
52744;SDS011;38637;49.984;20.426;2023-08-07T12:51:14;0.60;;;0.47;;
52744;SDS011;38637;49.984;20.426;2023-08-07T12:53:40;5.47;;;0.40;;
52744;SDS011;38637;49.984;20.426;2023-08-07T12:56:06;0.40;;;0.40;;
52744;SDS011;38637;49.984;20.426;2023-08-07T12:58:31;0.67;;;0.40;;
52744;SDS011;38637;49.984;20.426;2023-08-07T13:00:57;1.20;;;0.60;;
52744;SDS011;38637;49.984;20.426;2023-08-07T13:03:22;0.50;;;0.50;;
52744;SDS011;38637;49.984;20.426;2023-08-07T13:05:47;1.47;;;0.40;;
52744;SDS011;38637;49.984;20.426;2023-08-07T13:08:13;0.57;;;0.50;;
52744;SDS011;38637;49.984;20.426;2023-08-07T13:10:38;0.47;;;0.47;;
52744;SDS011;38637;49.984;20.426;2023-08-07T13:13:04;0.43;;;0.43;;
52744;SDS011;38637;49.984;20.426;2023-08-07T13:15:30;1.70;;;0.70;;
52744;SDS011;38637;49.984;20.426;2023-08-07T13:17:55;0.70;;;0.70;;
52744;SDS011;38637;49.984;20.426;2023-08-07T13:20:21;3.30;;;0.70;;
52744;SDS011;38637;49.984;20.426;2023-08-07T13:22:46;0.70;;;0.70;;
52744;SDS011;38637;49.984;20.426;2023-08-07T13:25:12;3.77;;;0.93;;
52744;SDS011;38637;49.984;20.426;2023-08-07T13:27:39;1.05;;;0.80;;
52744;SDS011;38637;49.984;20.426;2023-08-07T13:30:05;0.75;;;0.75;;
52744;SDS011;38637;49.984;20.426;2023-08-07T13:32:31;1.00;;;0.70;;
52744;SDS011;38637;49.984;20.426;2023-08-07T13:34:57;1.57;;;0.80;;
52744;SDS011;38637;49.984;20.426;2023-08-07T13:37:22;1.90;;;1.10;;
52744;SDS011;38637;49.984;20.426;2023-08-07T13:39:48;1.20;;;1.03;;
52744;SDS011;38637;49.984;20.426;2023-08-07T13:42:14;1.35;;;0.93;;
52744;SDS011;38637;49.984;20.426;2023-08-07T13:44:40;1.27;;;1.00;;
52744;SDS011;38637;49.984;20.426;2023-08-07T13:47:05;1.00;;;0.90;;
52744;SDS011;38637;49.984;20.426;2023-08-07T13:49:31;1.45;;;1.08;;
52744;SDS011;38637;49.984;20.426;2023-08-07T13:51:57;1.70;;;1.23;;
52744;SDS011;38637;49.984;20.426;2023-08-07T13:54:22;2.93;;;1.13;;
52744;SDS011;38637;49.984;20.426;2023-08-07T13:56:48;1.67;;;1.00;;
52744;SDS011;38637;49.984;20.426;2023-08-07T13:59:13;1.73;;;0.80;;
52744;SDS011;38637;49.984;20.426;2023-08-07T14:01:38;1.73;;;0.90;;
52744;SDS011;38637;49.984;20.426;2023-08-07T14:04:04;1.40;;;0.70;;
52744;SDS011;38637;49.984;20.426;2023-08-07T14:06:30;1.00;;;0.90;;
52744;SDS011;38637;49.984;20.426;2023-08-07T14:08:55;2.13;;;1.00;;
52744;SDS011;38637;49.984;20.426;2023-08-07T14:11:21;1.17;;;1.07;;
52744;SDS011;38637;49.984;20.426;2023-08-07T14:13:49;1.75;;;0.90;;
52744;SDS011;38637;49.984;20.426;2023-08-07T14:16:14;0.83;;;0.83;;
52744;SDS011;38637;49.984;20.426;2023-08-07T14:18:40;1.30;;;1.20;;
52744;SDS011;38637;49.984;20.426;2023-08-07T14:21:05;1.30;;;1.20;;
52744;SDS011;38637;49.984;20.426;2023-08-07T14:23:31;3.50;;;1.20;;
52744;SDS011;38637;49.984;20.426;2023-08-07T14:25:56;1.47;;;1.23;;
52744;SDS011;38637;49.984;20.426;2023-08-07T14:28:22;3.37;;;1.57;;
52744;SDS011;38637;49.984;20.426;2023-08-07T14:30:47;2.67;;;2.03;;
52744;SDS011;38637;49.984;20.426;2023-08-07T14:33:13;4.30;;;1.83;;
52744;SDS011;38637;49.984;20.426;2023-08-07T14:35:38;1.87;;;1.63;;
52744;SDS011;38637;49.984;20.426;2023-08-07T14:38:04;1.90;;;1.50;;
52744;SDS011;38637;49.984;20.426;2023-08-07T14:40:29;1.40;;;1.30;;
52744;SDS011;38637;49.984;20.426;2023-08-07T14:42:55;1.35;;;1.08;;
52744;SDS011;38637;49.984;20.426;2023-08-07T14:45:21;2.15;;;1.40;;
52744;SDS011;38637;49.984;20.426;2023-08-07T14:50:12;1.35;;;1.05;;